Terminal Aerodrome Forecast
Issued by NWS

Home | Current Version | Previous Version | Text Only | Print | Product List | Glossary On
Versions: 1 2 3 4 5 6 7 8 9 10 11 12 13 14 15 16 17 18 19 20
000
FTUS45 KABQ 261300 AAA
TAFAEG
TAF AMD
KAEG 261320Z 2613/2712 19007KT P6SM OVC050
      TEMPO 2613/2616 2SM RA BR OVC020
     FM261600 19009KT P6SM VCSH OVC040
     FM262000 27012KT P6SM VCTS OVC045CB
     FM262300 31012G20KT P6SM VCSH OVC040
     FM270300 33012KT P6SM OVC035=

USA.gov is the U.S. government's official web portal to all federal, state and local government web resources and services.